sensor_id;sensor_type;location;lat;lon;timestamp;temperature;humidity
16625;DHT22;8426;48.496;9.098;2022-08-19T00:00:19;18.60;99.90
16625;DHT22;8426;48.496;9.098;2022-08-19T00:05:24;18.50;99.90
16625;DHT22;8426;48.496;9.098;2022-08-19T00:10:28;18.60;99.90
16625;DHT22;8426;48.496;9.098;2022-08-19T00:15:31;18.50;99.90
16625;DHT22;8426;48.496;9.098;2022-08-19T00:20:36;18.50;99.90
16625;DHT22;8426;48.496;9.098;2022-08-19T00:25:40;18.50;99.90
16625;DHT22;8426;48.496;9.098;2022-08-19T00:30:49;18.40;99.90
16625;DHT22;8426;48.496;9.098;2022-08-19T00:35:55;18.40;99.90
16625;DHT22;8426;48.496;9.098;2022-08-19T00:40:58;18.40;99.90
16625;DHT22;8426;48.496;9.098;2022-08-19T00:46:01;18.40;99.90
16625;DHT22;8426;48.496;9.098;2022-08-19T00:51:08;18.30;99.90
16625;DHT22;8426;48.496;9.098;2022-08-19T00:56:13;18.30;99.90
16625;DHT22;8426;48.496;9.098;2022-08-19T01:01:18;18.30;99.90
16625;DHT22;8426;48.496;9.098;2022-08-19T01:06:23;18.30;99.90
16625;DHT22;8426;48.496;9.098;2022-08-19T01:11:31;18.30;99.90
16625;DHT22;8426;48.496;9.098;2022-08-19T01:16:36;18.20;99.90
16625;DHT22;8426;48.496;9.098;2022-08-19T01:21:49;18.10;99.90
16625;DHT22;8426;48.496;9.098;2022-08-19T01:26:56;18.00;99.90
16625;DHT22;8426;48.496;9.098;2022-08-19T01:32:01;18.00;99.90
16625;DHT22;8426;48.496;9.098;2022-08-19T01:37:07;17.90;99.90
16625;DHT22;8426;48.496;9.098;2022-08-19T01:42:14;17.90;99.90
16625;DHT22;8426;48.496;9.098;2022-08-19T01:47:17;17.90;99.90
16625;DHT22;8426;48.496;9.098;2022-08-19T01:52:21;17.80;99.90
16625;DHT22;8426;48.496;9.098;2022-08-19T01:57:25;17.80;99.90
16625;DHT22;8426;48.496;9.098;2022-08-19T02:02:29;17.70;99.90
16625;DHT22;8426;48.496;9.098;2022-08-19T02:07:32;17.70;99.90
16625;DHT22;8426;48.496;9.098;2022-08-19T02:12:40;17.60;99.90
16625;DHT22;8426;48.496;9.098;2022-08-19T02:17:43;17.60;99.90
16625;DHT22;8426;48.496;9.098;2022-08-19T02:22:46;17.60;99.90
16625;DHT22;8426;48.496;9.098;2022-08-19T02:27:51;17.60;99.90
16625;DHT22;8426;48.496;9.098;2022-08-19T02:32:55;17.50;99.90
16625;DHT22;8426;48.496;9.098;2022-08-19T02:38:00;17.50;99.90
16625;DHT22;8426;48.496;9.098;2022-08-19T02:43:23;17.50;99.90
16625;DHT22;8426;48.496;9.098;2022-08-19T02:48:30;17.50;99.90
16625;DHT22;8426;48.496;9.098;2022-08-19T02:53:35;17.40;99.90
16625;DHT22;8426;48.496;9.098;2022-08-19T02:58:40;17.40;99.90
16625;DHT22;8426;48.496;9.098;2022-08-19T03:03:44;17.40;99.90
16625;DHT22;8426;48.496;9.098;2022-08-19T03:08:48;17.40;99.90
16625;DHT22;8426;48.496;9.098;2022-08-19T03:13:53;17.30;99.90
16625;DHT22;8426;48.496;9.098;2022-08-19T03:18:57;17.30;99.90
16625;DHT22;8426;48.496;9.098;2022-08-19T03:24:06;17.30;99.90
16625;DHT22;8426;48.496;9.098;2022-08-19T03:29:12;17.30;99.90
16625;DHT22;8426;48.496;9.098;2022-08-19T03:34:29;17.30;99.90
16625;DHT22;8426;48.496;9.098;2022-08-19T03:39:33;17.30;99.90
16625;DHT22;8426;48.496;9.098;2022-08-19T03:44:38;17.30;99.90
16625;DHT22;8426;48.496;9.098;2022-08-19T03:49:41;17.20;99.90
16625;DHT22;8426;48.496;9.098;2022-08-19T03:54:45;17.20;99.90
16625;DHT22;8426;48.496;9.098;2022-08-19T03:59:49;17.20;99.90
16625;DHT22;8426;48.496;9.098;2022-08-19T04:04:53;17.20;99.90
16625;DHT22;8426;48.496;9.098;2022-08-19T04:09:57;17.20;99.90
16625;DHT22;8426;48.496;9.098;2022-08-19T04:15:03;17.10;99.90
16625;DHT22;8426;48.496;9.098;2022-08-19T04:20:07;17.10;99.90
16625;DHT22;8426;48.496;9.098;2022-08-19T04:25:12;17.10;99.90
16625;DHT22;8426;48.496;9.098;2022-08-19T04:30:17;17.10;99.90
16625;DHT22;8426;48.496;9.098;2022-08-19T04:35:21;17.10;99.90
16625;DHT22;8426;48.496;9.098;2022-08-19T04:40:25;17.10;99.90
16625;DHT22;8426;48.496;9.098;2022-08-19T04:45:50;17.20;99.90
16625;DHT22;8426;48.496;9.098;2022-08-19T04:51:06;17.20;99.90
16625;DHT22;8426;48.496;9.098;2022-08-19T04:56:11;17.20;99.90
16625;DHT22;8426;48.496;9.098;2022-08-19T05:01:19;17.30;99.90
16625;DHT22;8426;48.496;9.098;2022-08-19T05:06:23;17.40;99.90
16625;DHT22;8426;48.496;9.098;2022-08-19T05:11:28;17.40;99.90
16625;DHT22;8426;48.496;9.098;2022-08-19T05:16:33;17.40;99.90
16625;DHT22;8426;48.496;9.098;2022-08-19T05:21:38;17.50;99.90
16625;DHT22;8426;48.496;9.098;2022-08-19T05:26:59;17.60;99.90
16625;DHT22;8426;48.496;9.098;2022-08-19T05:32:06;17.50;99.90
16625;DHT22;8426;48.496;9.098;2022-08-19T05:37:10;17.50;99.90
16625;DHT22;8426;48.496;9.098;2022-08-19T05:42:13;17.50;99.90
16625;DHT22;8426;48.496;9.098;2022-08-19T05:47:18;17.50;99.90
16625;DHT22;8426;48.496;9.098;2022-08-19T05:52:22;17.50;99.90
16625;DHT22;8426;48.496;9.098;2022-08-19T05:57:27;17.60;99.90
16625;DHT22;8426;48.496;9.098;2022-08-19T06:02:32;17.60;99.90
16625;DHT22;8426;48.496;9.098;2022-08-19T06:07:38;17.70;99.90
16625;DHT22;8426;48.496;9.098;2022-08-19T06:12:41;17.80;99.90
16625;DHT22;8426;48.496;9.098;2022-08-19T06:17:46;17.90;99.90
16625;DHT22;8426;48.496;9.098;2022-08-19T06:22:49;17.80;99.90
16625;DHT22;8426;48.496;9.098;2022-08-19T06:27:53;17.90;99.90
16625;DHT22;8426;48.496;9.098;2022-08-19T06:33:17;18.00;99.90
16625;DHT22;8426;48.496;9.098;2022-08-19T06:38:20;18.10;99.90
16625;DHT22;8426;48.496;9.098;2022-08-19T06:43:25;18.30;99.90
16625;DHT22;8426;48.496;9.098;2022-08-19T06:48:31;18.40;99.90
16625;DHT22;8426;48.496;9.098;2022-08-19T06:53:46;18.50;99.90
16625;DHT22;8426;48.496;9.098;2022-08-19T06:58:49;18.50;99.90
16625;DHT22;8426;48.496;9.098;2022-08-19T07:03:55;18.60;99.90
16625;DHT22;8426;48.496;9.098;2022-08-19T07:08:59;18.70;99.90
16625;DHT22;8426;48.496;9.098;2022-08-19T07:14:03;18.70;99.90
16625;DHT22;8426;48.496;9.098;2022-08-19T07:19:22;18.60;99.90
16625;DHT22;8426;48.496;9.098;2022-08-19T07:24:26;18.60;99.90
16625;DHT22;8426;48.496;9.098;2022-08-19T07:29:35;18.60;99.90
16625;DHT22;8426;48.496;9.098;2022-08-19T07:34:40;18.40;99.90
16625;DHT22;8426;48.496;9.098;2022-08-19T07:39:44;18.30;99.90
16625;DHT22;8426;48.496;9.098;2022-08-19T07:44:47;18.20;99.90
16625;DHT22;8426;48.496;9.098;2022-08-19T07:49:53;18.10;99.90
16625;DHT22;8426;48.496;9.098;2022-08-19T07:54:56;18.10;99.90
16625;DHT22;8426;48.496;9.098;2022-08-19T08:00:03;18.20;99.90
16625;DHT22;8426;48.496;9.098;2022-08-19T08:05:09;18.20;99.90
16625;DHT22;8426;48.496;9.098;2022-08-19T08:10:30;18.20;99.90
16625;DHT22;8426;48.496;9.098;2022-08-19T08:15:35;18.20;99.90
16625;DHT22;8426;48.496;9.098;2022-08-19T08:20:45;18.30;99.90
16625;DHT22;8426;48.496;9.098;2022-08-19T08:25:49;18.40;99.90
16625;DHT22;8426;48.496;9.098;2022-08-19T08:30:52;18.50;99.90
16625;DHT22;8426;48.496;9.098;2022-08-19T08:35:57;18.50;99.90
16625;DHT22;8426;48.496;9.098;2022-08-19T08:41:09;18.60;99.90
16625;DHT22;8426;48.496;9.098;2022-08-19T08:46:27;18.60;99.90
16625;DHT22;8426;48.496;9.098;2022-08-19T08:51:38;18.50;99.90
16625;DHT22;8426;48.496;9.098;2022-08-19T08:56:45;18.40;99.90
16625;DHT22;8426;48.496;9.098;2022-08-19T09:01:52;18.40;99.90
16625;DHT22;8426;48.496;9.098;2022-08-19T09:07:08;18.30;99.90
16625;DHT22;8426;48.496;9.098;2022-08-19T09:12:39;18.30;99.90
16625;DHT22;8426;48.496;9.098;2022-08-19T09:17:48;18.20;99.90
16625;DHT22;8426;48.496;9.098;2022-08-19T09:22:52;18.10;99.90
16625;DHT22;8426;48.496;9.098;2022-08-19T09:27:56;18.10;99.90
16625;DHT22;8426;48.496;9.098;2022-08-19T09:33:03;18.20;99.90
16625;DHT22;8426;48.496;9.098;2022-08-19T09:38:09;18.30;99.90
16625;DHT22;8426;48.496;9.098;2022-08-19T09:43:12;18.30;99.90
16625;DHT22;8426;48.496;9.098;2022-08-19T09:48:34;18.30;99.90
16625;DHT22;8426;48.496;9.098;2022-08-19T09:53:39;18.30;99.90
16625;DHT22;8426;48.496;9.098;2022-08-19T09:58:42;18.30;99.90
16625;DHT22;8426;48.496;9.098;2022-08-19T10:03:48;18.50;99.90
16625;DHT22;8426;48.496;9.098;2022-08-19T10:08:53;18.60;99.90
16625;DHT22;8426;48.496;9.098;2022-08-19T10:13:57;18.60;99.90
16625;DHT22;8426;48.496;9.098;2022-08-19T10:19:01;18.70;99.90
16625;DHT22;8426;48.496;9.098;2022-08-19T10:24:08;18.60;99.90
16625;DHT22;8426;48.496;9.098;2022-08-19T10:29:11;18.70;99.90
16625;DHT22;8426;48.496;9.098;2022-08-19T10:34:34;18.80;99.90
16625;DHT22;8426;48.496;9.098;2022-08-19T10:39:50;18.90;99.90
16625;DHT22;8426;48.496;9.098;2022-08-19T10:44:54;18.90;99.90
16625;DHT22;8426;48.496;9.098;2022-08-19T10:49:59;18.80;99.90
16625;DHT22;8426;48.496;9.098;2022-08-19T10:55:23;19.00;99.90
16625;DHT22;8426;48.496;9.098;2022-08-19T11:00:51;19.10;99.90
16625;DHT22;8426;48.496;9.098;2022-08-19T11:05:58;19.30;99.90
16625;DHT22;8426;48.496;9.098;2022-08-19T11:11:05;19.40;99.90
16625;DHT22;8426;48.496;9.098;2022-08-19T11:16:11;19.40;99.90
16625;DHT22;8426;48.496;9.098;2022-08-19T11:21:18;19.30;99.90
16625;DHT22;8426;48.496;9.098;2022-08-19T11:26:24;19.40;99.90
16625;DHT22;8426;48.496;9.098;2022-08-19T11:31:30;19.40;99.90
16625;DHT22;8426;48.496;9.098;2022-08-19T11:36:34;19.30;99.90
16625;DHT22;8426;48.496;9.098;2022-08-19T11:41:39;19.10;99.90
16625;DHT22;8426;48.496;9.098;2022-08-19T11:46:44;19.10;99.90
16625;DHT22;8426;48.496;9.098;2022-08-19T11:51:48;19.00;99.90
16625;DHT22;8426;48.496;9.098;2022-08-19T11:56:53;19.00;99.90
16625;DHT22;8426;48.496;9.098;2022-08-19T12:01:58;19.00;99.90
16625;DHT22;8426;48.496;9.098;2022-08-19T12:07:01;19.00;99.90
16625;DHT22;8426;48.496;9.098;2022-08-19T12:12:07;19.00;99.90
16625;DHT22;8426;48.496;9.098;2022-08-19T12:17:11;19.00;99.90
16625;DHT22;8426;48.496;9.098;2022-08-19T12:22:15;18.90;99.90
16625;DHT22;8426;48.496;9.098;2022-08-19T12:27:20;19.00;99.90
16625;DHT22;8426;48.496;9.098;2022-08-19T12:32:41;19.00;99.90
16625;DHT22;8426;48.496;9.098;2022-08-19T12:37:44;18.80;99.90
16625;DHT22;8426;48.496;9.098;2022-08-19T12:42:59;18.80;99.90
16625;DHT22;8426;48.496;9.098;2022-08-19T12:48:03;18.70;99.90
16625;DHT22;8426;48.496;9.098;2022-08-19T12:53:26;18.70;99.90
16625;DHT22;8426;48.496;9.098;2022-08-19T12:58:32;18.80;99.90
16625;DHT22;8426;48.496;9.098;2022-08-19T13:03:36;18.90;99.90
16625;DHT22;8426;48.496;9.098;2022-08-19T13:08:41;19.20;99.90
16625;DHT22;8426;48.496;9.098;2022-08-19T13:13:51;19.20;99.90
16625;DHT22;8426;48.496;9.098;2022-08-19T13:18:57;19.20;99.90
16625;DHT22;8426;48.496;9.098;2022-08-19T13:24:00;19.00;99.90
16625;DHT22;8426;48.496;9.098;2022-08-19T13:35:32;18.80;99.90
16625;DHT22;8426;48.496;9.098;2022-08-19T13:47:05;18.70;99.90
16625;DHT22;8426;48.496;9.098;2022-08-19T13:52:10;18.60;99.90
16625;DHT22;8426;48.496;9.098;2022-08-19T14:47:54;18.70;99.90
16625;DHT22;8426;48.496;9.098;2022-08-19T14:52:58;18.60;99.90
16625;DHT22;8426;48.496;9.098;2022-08-19T14:58:09;18.70;99.90
16625;DHT22;8426;48.496;9.098;2022-08-19T15:03:32;18.80;99.90
16625;DHT22;8426;48.496;9.098;2022-08-19T15:08:37;18.90;99.90
16625;DHT22;8426;48.496;9.098;2022-08-19T15:13:41;19.10;99.90
16625;DHT22;8426;48.496;9.098;2022-08-19T15:18:50;19.40;99.90
16625;DHT22;8426;48.496;9.098;2022-08-19T15:23:57;19.50;99.90
16625;DHT22;8426;48.496;9.098;2022-08-19T15:29:01;19.70;99.90
16625;DHT22;8426;48.496;9.098;2022-08-19T15:34:06;19.60;99.90
16625;DHT22;8426;48.496;9.098;2022-08-19T15:39:10;19.90;99.90
16625;DHT22;8426;48.496;9.098;2022-08-19T15:44:15;20.10;99.90
16625;DHT22;8426;48.496;9.098;2022-08-19T15:49:21;20.20;99.90
16625;DHT22;8426;48.496;9.098;2022-08-19T15:54:24;20.10;99.90
16625;DHT22;8426;48.496;9.098;2022-08-19T15:59:28;20.00;99.90
16625;DHT22;8426;48.496;9.098;2022-08-19T16:04:52;19.90;99.90
16625;DHT22;8426;48.496;9.098;2022-08-19T16:10:13;20.00;99.90
16625;DHT22;8426;48.496;9.098;2022-08-19T16:15:30;20.30;99.90
16625;DHT22;8426;48.496;9.098;2022-08-19T16:20:38;20.60;99.90
16625;DHT22;8426;48.496;9.098;2022-08-19T16:25:41;20.80;99.90
16625;DHT22;8426;48.496;9.098;2022-08-19T16:30:45;20.90;99.90
16625;DHT22;8426;48.496;9.098;2022-08-19T16:35:53;20.80;99.90
16625;DHT22;8426;48.496;9.098;2022-08-19T16:41:01;20.70;99.90
16625;DHT22;8426;48.496;9.098;2022-08-19T16:46:04;20.70;99.90
16625;DHT22;8426;48.496;9.098;2022-08-19T16:51:10;20.70;99.90
16625;DHT22;8426;48.496;9.098;2022-08-19T16:56:14;20.50;99.90
16625;DHT22;8426;48.496;9.098;2022-08-19T17:01:17;20.40;99.90
16625;DHT22;8426;48.496;9.098;2022-08-19T17:06:25;20.30;99.90
16625;DHT22;8426;48.496;9.098;2022-08-19T17:11:30;20.30;99.90
16625;DHT22;8426;48.496;9.098;2022-08-19T17:16:35;20.20;99.90
16625;DHT22;8426;48.496;9.098;2022-08-19T17:21:40;20.10;99.90
16625;DHT22;8426;48.496;9.098;2022-08-19T17:26:44;19.90;99.90
16625;DHT22;8426;48.496;9.098;2022-08-19T17:31:47;19.80;99.90
16625;DHT22;8426;48.496;9.098;2022-08-19T17:36:53;19.70;99.90
16625;DHT22;8426;48.496;9.098;2022-08-19T17:41:57;19.60;99.90
16625;DHT22;8426;48.496;9.098;2022-08-19T17:47:04;19.50;99.90
16625;DHT22;8426;48.496;9.098;2022-08-19T17:52:08;19.50;99.90
16625;DHT22;8426;48.496;9.098;2022-08-19T17:57:12;19.40;99.90
16625;DHT22;8426;48.496;9.098;2022-08-19T18:02:16;19.50;99.90
16625;DHT22;8426;48.496;9.098;2022-08-19T18:07:24;19.50;99.90
16625;DHT22;8426;48.496;9.098;2022-08-19T18:12:27;19.60;99.90
16625;DHT22;8426;48.496;9.098;2022-08-19T18:17:36;19.50;99.90
16625;DHT22;8426;48.496;9.098;2022-08-19T18:22:44;19.50;99.90
16625;DHT22;8426;48.496;9.098;2022-08-19T18:27:47;19.40;99.90
16625;DHT22;8426;48.496;9.098;2022-08-19T18:32:52;19.20;99.90
16625;DHT22;8426;48.496;9.098;2022-08-19T18:37:59;19.20;99.90
16625;DHT22;8426;48.496;9.098;2022-08-19T18:43:23;19.00;99.90
16625;DHT22;8426;48.496;9.098;2022-08-19T18:48:42;18.90;99.90
16625;DHT22;8426;48.496;9.098;2022-08-19T18:54:05;18.80;99.90
16625;DHT22;8426;48.496;9.098;2022-08-19T18:59:09;18.90;99.90
16625;DHT22;8426;48.496;9.098;2022-08-19T19:04:13;18.90;99.90
16625;DHT22;8426;48.496;9.098;2022-08-19T19:09:20;18.90;99.90
16625;DHT22;8426;48.496;9.098;2022-08-19T19:14:25;18.60;99.90
16625;DHT22;8426;48.496;9.098;2022-08-19T19:19:49;18.50;99.90
16625;DHT22;8426;48.496;9.098;2022-08-19T19:24:56;18.40;99.90
16625;DHT22;8426;48.496;9.098;2022-08-19T19:30:00;18.40;99.90
16625;DHT22;8426;48.496;9.098;2022-08-19T19:35:07;18.50;99.90
16625;DHT22;8426;48.496;9.098;2022-08-19T19:40:13;18.50;99.90
16625;DHT22;8426;48.496;9.098;2022-08-19T19:45:17;18.60;99.90
16625;DHT22;8426;48.496;9.098;2022-08-19T19:50:23;18.60;99.90
16625;DHT22;8426;48.496;9.098;2022-08-19T19:55:28;18.70;99.90
16625;DHT22;8426;48.496;9.098;2022-08-19T20:00:32;18.70;99.90
16625;DHT22;8426;48.496;9.098;2022-08-19T20:05:38;18.60;99.90
16625;DHT22;8426;48.496;9.098;2022-08-19T20:10:44;18.50;99.90
16625;DHT22;8426;48.496;9.098;2022-08-19T20:15:47;18.50;99.90
16625;DHT22;8426;48.496;9.098;2022-08-19T20:20:54;18.40;99.90
16625;DHT22;8426;48.496;9.098;2022-08-19T20:25:58;18.50;99.90
16625;DHT22;8426;48.496;9.098;2022-08-19T20:31:02;18.40;99.90
16625;DHT22;8426;48.496;9.098;2022-08-19T20:36:06;18.40;99.90
16625;DHT22;8426;48.496;9.098;2022-08-19T20:41:11;18.30;99.90
16625;DHT22;8426;48.496;9.098;2022-08-19T20:46:14;18.30;99.90
16625;DHT22;8426;48.496;9.098;2022-08-19T20:51:17;18.30;99.90
16625;DHT22;8426;48.496;9.098;2022-08-19T20:56:23;18.40;99.90
16625;DHT22;8426;48.496;9.098;2022-08-19T21:01:26;18.30;99.90
16625;DHT22;8426;48.496;9.098;2022-08-19T21:06:29;18.30;99.90
16625;DHT22;8426;48.496;9.098;2022-08-19T21:11:34;18.30;99.90
16625;DHT22;8426;48.496;9.098;2022-08-19T21:16:38;18.30;99.90
16625;DHT22;8426;48.496;9.098;2022-08-19T21:21:42;18.30;99.90
16625;DHT22;8426;48.496;9.098;2022-08-19T21:26:46;18.30;99.90
16625;DHT22;8426;48.496;9.098;2022-08-19T21:31:52;18.30;99.90
16625;DHT22;8426;48.496;9.098;2022-08-19T21:36:55;18.40;99.90
16625;DHT22;8426;48.496;9.098;2022-08-19T21:42:00;18.50;99.90
16625;DHT22;8426;48.496;9.098;2022-08-19T21:47:04;18.60;99.90
16625;DHT22;8426;48.496;9.098;2022-08-19T21:52:11;18.60;99.90
16625;DHT22;8426;48.496;9.098;2022-08-19T21:57:16;18.60;99.90
16625;DHT22;8426;48.496;9.098;2022-08-19T22:02:20;18.60;99.90
16625;DHT22;8426;48.496;9.098;2022-08-19T22:07:23;18.60;99.90
16625;DHT22;8426;48.496;9.098;2022-08-19T22:12:29;18.60;99.90
16625;DHT22;8426;48.496;9.098;2022-08-19T22:17:33;18.60;99.90
16625;DHT22;8426;48.496;9.098;2022-08-19T22:22:38;18.60;99.90
16625;DHT22;8426;48.496;9.098;2022-08-19T22:27:48;18.60;99.90
16625;DHT22;8426;48.496;9.098;2022-08-19T22:32:59;18.60;99.90
16625;DHT22;8426;48.496;9.098;2022-08-19T22:38:05;18.70;99.90
16625;DHT22;8426;48.496;9.098;2022-08-19T22:43:15;18.60;99.90
16625;DHT22;8426;48.496;9.098;2022-08-19T22:48:21;18.50;99.90
16625;DHT22;8426;48.496;9.098;2022-08-19T22:53:26;18.50;99.90
16625;DHT22;8426;48.496;9.098;2022-08-19T22:58:30;18.40;99.90
16625;DHT22;8426;48.496;9.098;2022-08-19T23:03:33;18.40;99.90
16625;DHT22;8426;48.496;9.098;2022-08-19T23:08:37;18.40;99.90
16625;DHT22;8426;48.496;9.098;2022-08-19T23:13:42;18.40;99.90
16625;DHT22;8426;48.496;9.098;2022-08-19T23:18:46;18.40;99.90
16625;DHT22;8426;48.496;9.098;2022-08-19T23:23:55;18.40;99.90
16625;DHT22;8426;48.496;9.098;2022-08-19T23:28:59;18.40;99.90
16625;DHT22;8426;48.496;9.098;2022-08-19T23:34:20;18.30;99.90
16625;DHT22;8426;48.496;9.098;2022-08-19T23:39:23;18.30;99.90
16625;DHT22;8426;48.496;9.098;2022-08-19T23:44:32;18.40;99.90
16625;DHT22;8426;48.496;9.098;2022-08-19T23:49:52;18.30;99.90
16625;DHT22;8426;48.496;9.098;2022-08-19T23:54:59;18.30;99.90
